sensor_id;sensor_type;location;lat;lon;timestamp;P1;durP1;ratioP1;P2;durP2;ratioP2
8397;SDS011;4236;54.504;9.588;2023-03-11T00:00:36;42.57;;;39.70;;
8397;SDS011;4236;54.504;9.588;2023-03-11T00:03:06;46.23;;;42.87;;
8397;SDS011;4236;54.504;9.588;2023-03-11T00:05:36;43.07;;;39.73;;
8397;SDS011;4236;54.504;9.588;2023-03-11T00:08:08;40.43;;;37.90;;
8397;SDS011;4236;54.504;9.588;2023-03-11T00:10:39;39.77;;;37.20;;
8397;SDS011;4236;54.504;9.588;2023-03-11T00:13:09;37.67;;;35.47;;
8397;SDS011;4236;54.504;9.588;2023-03-11T00:15:40;38.20;;;35.80;;
8397;SDS011;4236;54.504;9.588;2023-03-11T00:18:09;36.50;;;34.23;;
8397;SDS011;4236;54.504;9.588;2023-03-11T00:20:37;37.20;;;34.80;;
8397;SDS011;4236;54.504;9.588;2023-03-11T00:23:10;35.47;;;33.57;;
8397;SDS011;4236;54.504;9.588;2023-03-11T00:25:38;36.80;;;34.40;;
8397;SDS011;4236;54.504;9.588;2023-03-11T00:28:06;36.77;;;34.47;;
8397;SDS011;4236;54.504;9.588;2023-03-11T00:30:35;38.93;;;36.53;;
8397;SDS011;4236;54.504;9.588;2023-03-11T00:33:05;38.10;;;35.80;;
8397;SDS011;4236;54.504;9.588;2023-03-11T00:35:34;39.13;;;36.50;;
8397;SDS011;4236;54.504;9.588;2023-03-11T00:38:03;37.47;;;35.17;;
8397;SDS011;4236;54.504;9.588;2023-03-11T00:40:34;36.13;;;34.20;;
8397;SDS011;4236;54.504;9.588;2023-03-11T00:43:02;37.83;;;35.57;;
8397;SDS011;4236;54.504;9.588;2023-03-11T00:45:30;37.47;;;35.40;;
8397;SDS011;4236;54.504;9.588;2023-03-11T00:47:58;36.83;;;34.47;;
8397;SDS011;4236;54.504;9.588;2023-03-11T00:50:27;36.07;;;34.00;;
8397;SDS011;4236;54.504;9.588;2023-03-11T00:52:56;38.23;;;35.90;;
8397;SDS011;4236;54.504;9.588;2023-03-11T00:55:25;38.10;;;35.90;;
8397;SDS011;4236;54.504;9.588;2023-03-11T00:57:56;39.37;;;36.97;;
8397;SDS011;4236;54.504;9.588;2023-03-11T01:00:25;36.80;;;34.80;;
8397;SDS011;4236;54.504;9.588;2023-03-11T01:02:55;37.30;;;35.07;;
8397;SDS011;4236;54.504;9.588;2023-03-11T01:05:24;39.50;;;37.10;;
8397;SDS011;4236;54.504;9.588;2023-03-11T01:07:54;41.97;;;39.33;;
8397;SDS011;4236;54.504;9.588;2023-03-11T01:10:22;39.27;;;36.90;;
8397;SDS011;4236;54.504;9.588;2023-03-11T01:12:50;40.33;;;38.03;;
8397;SDS011;4236;54.504;9.588;2023-03-11T01:15:20;38.63;;;36.17;;
8397;SDS011;4236;54.504;9.588;2023-03-11T01:17:49;40.30;;;37.53;;
8397;SDS011;4236;54.504;9.588;2023-03-11T01:20:17;39.43;;;37.10;;
8397;SDS011;4236;54.504;9.588;2023-03-11T01:22:45;40.67;;;38.27;;
8397;SDS011;4236;54.504;9.588;2023-03-11T01:25:14;41.57;;;39.17;;
8397;SDS011;4236;54.504;9.588;2023-03-11T01:27:43;41.80;;;39.33;;
8397;SDS011;4236;54.504;9.588;2023-03-11T01:30:12;43.60;;;41.03;;
8397;SDS011;4236;54.504;9.588;2023-03-11T01:32:43;45.77;;;43.07;;
8397;SDS011;4236;54.504;9.588;2023-03-11T01:35:11;41.50;;;38.70;;
8397;SDS011;4236;54.504;9.588;2023-03-11T01:37:40;42.47;;;40.00;;
8397;SDS011;4236;54.504;9.588;2023-03-11T01:40:10;43.80;;;41.20;;
8397;SDS011;4236;54.504;9.588;2023-03-11T01:42:43;43.27;;;40.80;;
8397;SDS011;4236;54.504;9.588;2023-03-11T01:45:23;43.83;;;41.27;;
8397;SDS011;4236;54.504;9.588;2023-03-11T01:48:03;44.03;;;41.63;;
8397;SDS011;4236;54.504;9.588;2023-03-11T01:50:33;44.83;;;41.93;;
8397;SDS011;4236;54.504;9.588;2023-03-11T01:53:03;47.50;;;44.70;;
8397;SDS011;4236;54.504;9.588;2023-03-11T01:55:31;46.30;;;43.50;;
8397;SDS011;4236;54.504;9.588;2023-03-11T01:58:00;46.13;;;43.30;;
8397;SDS011;4236;54.504;9.588;2023-03-11T02:00:31;48.63;;;45.83;;
8397;SDS011;4236;54.504;9.588;2023-03-11T02:03:00;45.93;;;43.50;;
8397;SDS011;4236;54.504;9.588;2023-03-11T02:05:34;46.57;;;43.67;;
8397;SDS011;4236;54.504;9.588;2023-03-11T02:08:02;44.47;;;42.07;;
8397;SDS011;4236;54.504;9.588;2023-03-11T02:10:30;46.00;;;43.10;;
8397;SDS011;4236;54.504;9.588;2023-03-11T02:12:58;45.23;;;42.63;;
8397;SDS011;4236;54.504;9.588;2023-03-11T02:15:26;46.47;;;43.60;;
8397;SDS011;4236;54.504;9.588;2023-03-11T02:17:54;46.67;;;44.10;;
8397;SDS011;4236;54.504;9.588;2023-03-11T02:20:26;48.43;;;45.83;;
8397;SDS011;4236;54.504;9.588;2023-03-11T02:23:04;49.03;;;46.07;;
8397;SDS011;4236;54.504;9.588;2023-03-11T02:25:33;46.43;;;43.93;;
8397;SDS011;4236;54.504;9.588;2023-03-11T02:28:07;49.70;;;46.90;;
8397;SDS011;4236;54.504;9.588;2023-03-11T02:30:38;51.87;;;48.87;;
8397;SDS011;4236;54.504;9.588;2023-03-11T02:33:08;51.93;;;48.73;;
8397;SDS011;4236;54.504;9.588;2023-03-11T02:35:38;50.57;;;47.97;;
8397;SDS011;4236;54.504;9.588;2023-03-11T02:38:05;54.03;;;50.67;;
8397;SDS011;4236;54.504;9.588;2023-03-11T02:40:38;54.80;;;51.70;;
8397;SDS011;4236;54.504;9.588;2023-03-11T02:43:15;53.10;;;50.30;;
8397;SDS011;4236;54.504;9.588;2023-03-11T02:45:46;52.67;;;49.77;;
8397;SDS011;4236;54.504;9.588;2023-03-11T02:48:15;51.13;;;48.30;;
8397;SDS011;4236;54.504;9.588;2023-03-11T02:50:43;55.30;;;52.17;;
8397;SDS011;4236;54.504;9.588;2023-03-11T02:53:12;53.20;;;50.10;;
8397;SDS011;4236;54.504;9.588;2023-03-11T02:55:40;55.70;;;52.70;;
8397;SDS011;4236;54.504;9.588;2023-03-11T02:58:08;52.23;;;49.53;;
8397;SDS011;4236;54.504;9.588;2023-03-11T03:00:37;54.50;;;51.53;;
8397;SDS011;4236;54.504;9.588;2023-03-11T03:03:05;53.10;;;50.13;;
8397;SDS011;4236;54.504;9.588;2023-03-11T03:05:32;50.60;;;48.00;;
8397;SDS011;4236;54.504;9.588;2023-03-11T03:08:00;51.90;;;49.10;;
8397;SDS011;4236;54.504;9.588;2023-03-11T03:10:28;49.60;;;47.00;;
8397;SDS011;4236;54.504;9.588;2023-03-11T03:12:56;49.50;;;46.73;;
8397;SDS011;4236;54.504;9.588;2023-03-11T03:15:23;50.53;;;47.73;;
8397;SDS011;4236;54.504;9.588;2023-03-11T03:17:52;49.10;;;46.50;;
8397;SDS011;4236;54.504;9.588;2023-03-11T03:20:20;46.83;;;44.23;;
8397;SDS011;4236;54.504;9.588;2023-03-11T03:22:48;46.10;;;43.60;;
8397;SDS011;4236;54.504;9.588;2023-03-11T03:25:16;45.40;;;42.87;;
8397;SDS011;4236;54.504;9.588;2023-03-11T03:27:44;41.93;;;39.53;;
8397;SDS011;4236;54.504;9.588;2023-03-11T03:30:12;44.33;;;41.83;;
8397;SDS011;4236;54.504;9.588;2023-03-11T03:32:40;42.37;;;39.93;;
8397;SDS011;4236;54.504;9.588;2023-03-11T03:35:10;42.73;;;40.20;;
8397;SDS011;4236;54.504;9.588;2023-03-11T03:37:38;41.10;;;38.90;;
8397;SDS011;4236;54.504;9.588;2023-03-11T03:40:06;41.00;;;38.93;;
8397;SDS011;4236;54.504;9.588;2023-03-11T03:42:35;39.00;;;36.90;;
8397;SDS011;4236;54.504;9.588;2023-03-11T03:45:04;40.90;;;38.40;;
8397;SDS011;4236;54.504;9.588;2023-03-11T03:47:34;40.03;;;37.93;;
8397;SDS011;4236;54.504;9.588;2023-03-11T03:50:02;42.90;;;40.60;;
8397;SDS011;4236;54.504;9.588;2023-03-11T03:52:31;41.13;;;38.73;;
8397;SDS011;4236;54.504;9.588;2023-03-11T03:54:59;39.73;;;37.77;;
8397;SDS011;4236;54.504;9.588;2023-03-11T03:57:27;42.17;;;39.77;;
8397;SDS011;4236;54.504;9.588;2023-03-11T03:59:55;41.20;;;38.97;;
8397;SDS011;4236;54.504;9.588;2023-03-11T04:02:22;41.00;;;38.80;;
8397;SDS011;4236;54.504;9.588;2023-03-11T04:04:50;42.17;;;39.97;;
8397;SDS011;4236;54.504;9.588;2023-03-11T04:07:18;39.43;;;37.30;;
8397;SDS011;4236;54.504;9.588;2023-03-11T04:09:47;42.80;;;40.63;;
8397;SDS011;4236;54.504;9.588;2023-03-11T04:12:15;43.40;;;40.97;;
8397;SDS011;4236;54.504;9.588;2023-03-11T04:14:43;42.50;;;40.10;;
8397;SDS011;4236;54.504;9.588;2023-03-11T04:17:11;44.60;;;41.97;;
8397;SDS011;4236;54.504;9.588;2023-03-11T04:19:39;42.07;;;39.67;;
8397;SDS011;4236;54.504;9.588;2023-03-11T04:22:07;44.20;;;41.70;;
8397;SDS011;4236;54.504;9.588;2023-03-11T04:24:35;43.03;;;40.53;;
8397;SDS011;4236;54.504;9.588;2023-03-11T04:27:04;44.60;;;42.30;;
8397;SDS011;4236;54.504;9.588;2023-03-11T04:29:32;42.27;;;40.17;;
8397;SDS011;4236;54.504;9.588;2023-03-11T04:32:00;46.07;;;43.60;;
8397;SDS011;4236;54.504;9.588;2023-03-11T04:34:28;48.60;;;45.90;;
8397;SDS011;4236;54.504;9.588;2023-03-11T04:36:55;45.40;;;42.70;;
8397;SDS011;4236;54.504;9.588;2023-03-11T04:39:23;49.33;;;46.30;;
8397;SDS011;4236;54.504;9.588;2023-03-11T04:41:51;46.60;;;43.97;;
8397;SDS011;4236;54.504;9.588;2023-03-11T04:44:20;46.03;;;43.53;;
8397;SDS011;4236;54.504;9.588;2023-03-11T04:46:47;47.80;;;45.50;;
8397;SDS011;4236;54.504;9.588;2023-03-11T04:49:15;48.53;;;45.93;;
8397;SDS011;4236;54.504;9.588;2023-03-11T04:51:43;49.03;;;45.93;;
8397;SDS011;4236;54.504;9.588;2023-03-11T04:54:10;47.57;;;45.10;;
8397;SDS011;4236;54.504;9.588;2023-03-11T04:56:38;48.37;;;45.47;;
8397;SDS011;4236;54.504;9.588;2023-03-11T04:59:06;47.47;;;44.97;;
8397;SDS011;4236;54.504;9.588;2023-03-11T05:01:35;48.93;;;46.30;;
8397;SDS011;4236;54.504;9.588;2023-03-11T05:04:03;49.97;;;47.17;;
8397;SDS011;4236;54.504;9.588;2023-03-11T05:06:31;47.90;;;45.30;;
8397;SDS011;4236;54.504;9.588;2023-03-11T05:08:59;48.23;;;45.73;;
8397;SDS011;4236;54.504;9.588;2023-03-11T05:11:27;49.00;;;46.17;;
8397;SDS011;4236;54.504;9.588;2023-03-11T05:13:55;46.87;;;44.10;;
8397;SDS011;4236;54.504;9.588;2023-03-11T05:16:22;47.73;;;45.30;;
8397;SDS011;4236;54.504;9.588;2023-03-11T05:18:52;48.90;;;46.20;;
8397;SDS011;4236;54.504;9.588;2023-03-11T05:21:19;48.40;;;45.80;;
8397;SDS011;4236;54.504;9.588;2023-03-11T05:23:47;50.40;;;47.47;;
8397;SDS011;4236;54.504;9.588;2023-03-11T05:26:15;48.03;;;45.43;;
8397;SDS011;4236;54.504;9.588;2023-03-11T05:28:42;49.67;;;47.07;;
8397;SDS011;4236;54.504;9.588;2023-03-11T05:31:10;50.03;;;47.30;;
8397;SDS011;4236;54.504;9.588;2023-03-11T05:33:38;48.63;;;45.83;;
8397;SDS011;4236;54.504;9.588;2023-03-11T05:36:08;49.90;;;47.13;;
8397;SDS011;4236;54.504;9.588;2023-03-11T05:38:36;50.47;;;47.97;;
8397;SDS011;4236;54.504;9.588;2023-03-11T05:41:04;51.47;;;48.67;;
8397;SDS011;4236;54.504;9.588;2023-03-11T05:43:32;48.72;;;46.08;;
8397;SDS011;4236;54.504;9.588;2023-03-11T05:46:00;44.90;;;42.50;;
8397;SDS011;4236;54.504;9.588;2023-03-11T05:48:27;47.33;;;44.73;;
8397;SDS011;4236;54.504;9.588;2023-03-11T05:50:56;49.60;;;46.70;;
8397;SDS011;4236;54.504;9.588;2023-03-11T05:53:25;50.50;;;47.60;;
8397;SDS011;4236;54.504;9.588;2023-03-11T05:55:56;51.77;;;48.80;;
8397;SDS011;4236;54.504;9.588;2023-03-11T05:58:24;49.90;;;47.30;;
8397;SDS011;4236;54.504;9.588;2023-03-11T06:00:52;48.03;;;45.73;;
8397;SDS011;4236;54.504;9.588;2023-03-11T06:03:19;49.50;;;46.90;;
8397;SDS011;4236;54.504;9.588;2023-03-11T06:05:47;48.90;;;46.50;;
8397;SDS011;4236;54.504;9.588;2023-03-11T06:08:16;49.17;;;46.47;;
8397;SDS011;4236;54.504;9.588;2023-03-11T06:10:45;46.60;;;44.33;;
8397;SDS011;4236;54.504;9.588;2023-03-11T06:13:14;45.17;;;42.87;;
8397;SDS011;4236;54.504;9.588;2023-03-11T06:15:42;44.93;;;42.30;;
8397;SDS011;4236;54.504;9.588;2023-03-11T06:18:11;45.10;;;42.83;;
8397;SDS011;4236;54.504;9.588;2023-03-11T06:20:38;44.87;;;42.77;;
8397;SDS011;4236;54.504;9.588;2023-03-11T06:23:06;44.33;;;42.07;;
8397;SDS011;4236;54.504;9.588;2023-03-11T06:25:33;42.23;;;40.20;;
8397;SDS011;4236;54.504;9.588;2023-03-11T06:28:02;41.40;;;39.10;;
8397;SDS011;4236;54.504;9.588;2023-03-11T06:30:30;43.33;;;41.23;;
8397;SDS011;4236;54.504;9.588;2023-03-11T06:32:58;40.70;;;38.67;;
8397;SDS011;4236;54.504;9.588;2023-03-11T06:35:26;42.07;;;40.07;;
8397;SDS011;4236;54.504;9.588;2023-03-11T06:37:54;41.40;;;39.40;;
8397;SDS011;4236;54.504;9.588;2023-03-11T06:40:22;39.30;;;37.40;;
8397;SDS011;4236;54.504;9.588;2023-03-11T06:42:49;37.37;;;35.57;;
8397;SDS011;4236;54.504;9.588;2023-03-11T06:45:18;36.50;;;34.67;;
8397;SDS011;4236;54.504;9.588;2023-03-11T06:47:46;35.30;;;33.60;;
8397;SDS011;4236;54.504;9.588;2023-03-11T06:50:14;34.03;;;32.40;;
8397;SDS011;4236;54.504;9.588;2023-03-11T06:52:42;31.50;;;30.00;;
8397;SDS011;4236;54.504;9.588;2023-03-11T06:55:10;30.80;;;29.50;;
8397;SDS011;4236;54.504;9.588;2023-03-11T06:57:37;30.37;;;29.00;;
8397;SDS011;4236;54.504;9.588;2023-03-11T07:00:06;29.27;;;27.97;;
8397;SDS011;4236;54.504;9.588;2023-03-11T07:02:38;26.23;;;25.23;;
8397;SDS011;4236;54.504;9.588;2023-03-11T07:05:06;27.03;;;25.83;;
8397;SDS011;4236;54.504;9.588;2023-03-11T07:07:34;26.10;;;25.00;;
8397;SDS011;4236;54.504;9.588;2023-03-11T07:10:02;25.53;;;24.43;;
8397;SDS011;4236;54.504;9.588;2023-03-11T07:12:30;23.40;;;22.43;;
8397;SDS011;4236;54.504;9.588;2023-03-11T07:14:58;24.70;;;23.60;;
8397;SDS011;4236;54.504;9.588;2023-03-11T07:17:26;24.70;;;23.53;;
8397;SDS011;4236;54.504;9.588;2023-03-11T07:19:55;24.97;;;23.67;;
8397;SDS011;4236;54.504;9.588;2023-03-11T07:22:23;24.63;;;23.43;;
8397;SDS011;4236;54.504;9.588;2023-03-11T07:24:51;24.23;;;23.30;;
8397;SDS011;4236;54.504;9.588;2023-03-11T07:27:18;27.73;;;26.53;;
8397;SDS011;4236;54.504;9.588;2023-03-11T07:29:46;26.23;;;24.63;;
8397;SDS011;4236;54.504;9.588;2023-03-11T07:32:14;25.73;;;24.30;;
8397;SDS011;4236;54.504;9.588;2023-03-11T07:34:43;23.37;;;22.37;;
8397;SDS011;4236;54.504;9.588;2023-03-11T07:37:12;24.60;;;23.40;;
8397;SDS011;4236;54.504;9.588;2023-03-11T07:39:40;23.60;;;22.60;;
8397;SDS011;4236;54.504;9.588;2023-03-11T07:42:07;21.73;;;20.73;;
8397;SDS011;4236;54.504;9.588;2023-03-11T07:44:35;22.30;;;21.27;;
8397;SDS011;4236;54.504;9.588;2023-03-11T07:47:03;19.77;;;19.07;;
8397;SDS011;4236;54.504;9.588;2023-03-11T07:49:31;20.67;;;19.87;;
8397;SDS011;4236;54.504;9.588;2023-03-11T07:51:59;20.00;;;19.10;;
8397;SDS011;4236;54.504;9.588;2023-03-11T07:54:28;19.53;;;18.73;;
8397;SDS011;4236;54.504;9.588;2023-03-11T07:56:55;19.53;;;18.53;;
8397;SDS011;4236;54.504;9.588;2023-03-11T07:59:23;19.57;;;18.63;;
8397;SDS011;4236;54.504;9.588;2023-03-11T08:01:51;19.10;;;17.90;;
8397;SDS011;4236;54.504;9.588;2023-03-11T08:04:19;19.07;;;18.33;;
8397;SDS011;4236;54.504;9.588;2023-03-11T08:06:46;19.30;;;18.50;;
8397;SDS011;4236;54.504;9.588;2023-03-11T08:09:14;19.17;;;18.47;;
8397;SDS011;4236;54.504;9.588;2023-03-11T08:11:44;20.80;;;19.80;;
8397;SDS011;4236;54.504;9.588;2023-03-11T08:14:14;20.27;;;18.97;;
8397;SDS011;4236;54.504;9.588;2023-03-11T08:16:42;19.20;;;18.50;;
8397;SDS011;4236;54.504;9.588;2023-03-11T08:19:09;19.10;;;18.37;;
8397;SDS011;4236;54.504;9.588;2023-03-11T08:21:37;16.40;;;15.80;;
8397;SDS011;4236;54.504;9.588;2023-03-11T08:24:05;17.23;;;16.53;;
8397;SDS011;4236;54.504;9.588;2023-03-11T08:26:33;16.03;;;15.43;;
8397;SDS011;4236;54.504;9.588;2023-03-11T08:29:02;16.60;;;15.83;;
8397;SDS011;4236;54.504;9.588;2023-03-11T08:31:31;15.90;;;15.30;;
8397;SDS011;4236;54.504;9.588;2023-03-11T08:34:00;14.67;;;13.97;;
8397;SDS011;4236;54.504;9.588;2023-03-11T08:36:30;14.33;;;13.73;;
8397;SDS011;4236;54.504;9.588;2023-03-11T08:38:59;14.90;;;14.20;;
8397;SDS011;4236;54.504;9.588;2023-03-11T08:41:27;13.10;;;12.50;;
8397;SDS011;4236;54.504;9.588;2023-03-11T08:43:54;12.90;;;12.50;;
8397;SDS011;4236;54.504;9.588;2023-03-11T08:46:25;11.57;;;11.13;;
8397;SDS011;4236;54.504;9.588;2023-03-11T08:48:55;12.20;;;11.70;;
8397;SDS011;4236;54.504;9.588;2023-03-11T08:51:26;10.27;;;9.97;;
8397;SDS011;4236;54.504;9.588;2023-03-11T08:53:55;10.70;;;10.17;;
8397;SDS011;4236;54.504;9.588;2023-03-11T08:56:23;12.03;;;11.43;;
8397;SDS011;4236;54.504;9.588;2023-03-11T08:58:51;10.30;;;9.73;;
8397;SDS011;4236;54.504;9.588;2023-03-11T09:01:20;9.77;;;9.47;;
8397;SDS011;4236;54.504;9.588;2023-03-11T09:03:50;10.73;;;10.27;;
8397;SDS011;4236;54.504;9.588;2023-03-11T09:06:18;9.27;;;8.63;;
8397;SDS011;4236;54.504;9.588;2023-03-11T09:08:46;10.77;;;10.17;;
8397;SDS011;4236;54.504;9.588;2023-03-11T09:11:15;9.67;;;9.07;;
8397;SDS011;4236;54.504;9.588;2023-03-11T09:13:44;8.70;;;8.37;;
8397;SDS011;4236;54.504;9.588;2023-03-11T09:16:12;8.97;;;8.47;;
8397;SDS011;4236;54.504;9.588;2023-03-11T09:18:40;8.70;;;8.20;;
8397;SDS011;4236;54.504;9.588;2023-03-11T09:21:09;8.20;;;8.00;;
8397;SDS011;4236;54.504;9.588;2023-03-11T09:23:38;8.77;;;8.20;;
8397;SDS011;4236;54.504;9.588;2023-03-11T09:26:09;8.70;;;8.40;;
8397;SDS011;4236;54.504;9.588;2023-03-11T09:28:37;8.50;;;7.90;;
8397;SDS011;4236;54.504;9.588;2023-03-11T09:31:05;8.93;;;8.43;;
8397;SDS011;4236;54.504;9.588;2023-03-11T09:33:35;8.10;;;7.80;;
8397;SDS011;4236;54.504;9.588;2023-03-11T09:36:04;7.83;;;7.40;;
8397;SDS011;4236;54.504;9.588;2023-03-11T09:38:33;8.00;;;7.80;;
8397;SDS011;4236;54.504;9.588;2023-03-11T09:41:01;8.17;;;7.60;;
8397;SDS011;4236;54.504;9.588;2023-03-11T09:43:43;9.07;;;8.57;;
8397;SDS011;4236;54.504;9.588;2023-03-11T09:46:29;12.40;;;8.27;;
8397;SDS011;4236;54.504;9.588;2023-03-11T09:49:13;8.27;;;7.97;;
8397;SDS011;4236;54.504;9.588;2023-03-11T09:51:49;8.47;;;7.80;;
8397;SDS011;4236;54.504;9.588;2023-03-11T09:54:25;7.63;;;7.23;;
8397;SDS011;4236;54.504;9.588;2023-03-11T09:56:55;8.87;;;8.10;;
8397;SDS011;4236;54.504;9.588;2023-03-11T09:59:25;7.83;;;7.60;;
8397;SDS011;4236;54.504;9.588;2023-03-11T10:01:56;8.70;;;7.93;;
8397;SDS011;4236;54.504;9.588;2023-03-11T10:04:27;8.80;;;8.23;;
8397;SDS011;4236;54.504;9.588;2023-03-11T10:06:59;8.30;;;8.00;;
8397;SDS011;4236;54.504;9.588;2023-03-11T10:09:34;7.30;;;6.83;;
8397;SDS011;4236;54.504;9.588;2023-03-11T10:12:10;7.77;;;7.17;;
8397;SDS011;4236;54.504;9.588;2023-03-11T10:14:52;7.30;;;6.90;;
8397;SDS011;4236;54.504;9.588;2023-03-11T10:17:35;6.70;;;6.43;;
8397;SDS011;4236;54.504;9.588;2023-03-11T10:20:14;7.57;;;6.97;;
8397;SDS011;4236;54.504;9.588;2023-03-11T10:22:49;6.90;;;6.60;;
8397;SDS011;4236;54.504;9.588;2023-03-11T10:25:27;6.53;;;6.23;;
8397;SDS011;4236;54.504;9.588;2023-03-11T10:27:58;7.27;;;6.77;;
8397;SDS011;4236;54.504;9.588;2023-03-11T10:30:30;6.47;;;6.10;;
8397;SDS011;4236;54.504;9.588;2023-03-11T10:33:00;7.30;;;6.67;;
8397;SDS011;4236;54.504;9.588;2023-03-11T10:35:35;6.97;;;6.53;;
8397;SDS011;4236;54.504;9.588;2023-03-11T10:38:09;6.67;;;6.17;;
8397;SDS011;4236;54.504;9.588;2023-03-11T10:40:42;7.50;;;6.93;;
8397;SDS011;4236;54.504;9.588;2023-03-11T10:43:12;5.93;;;5.73;;
8397;SDS011;4236;54.504;9.588;2023-03-11T10:45:43;5.80;;;5.70;;
8397;SDS011;4236;54.504;9.588;2023-03-11T10:48:14;6.30;;;6.10;;
8397;SDS011;4236;54.504;9.588;2023-03-11T10:50:46;5.83;;;5.50;;
8397;SDS011;4236;54.504;9.588;2023-03-11T10:53:18;5.70;;;5.30;;
8397;SDS011;4236;54.504;9.588;2023-03-11T10:55:48;6.50;;;6.20;;
8397;SDS011;4236;54.504;9.588;2023-03-11T10:58:18;7.00;;;6.50;;
8397;SDS011;4236;54.504;9.588;2023-03-11T11:00:58;6.77;;;6.37;;
8397;SDS011;4236;54.504;9.588;2023-03-11T11:03:27;6.20;;;5.73;;
8397;SDS011;4236;54.504;9.588;2023-03-11T11:05:56;6.23;;;5.93;;
8397;SDS011;4236;54.504;9.588;2023-03-11T11:08:28;8.17;;;5.77;;
8397;SDS011;4236;54.504;9.588;2023-03-11T11:10:59;6.20;;;6.00;;
8397;SDS011;4236;54.504;9.588;2023-03-11T11:13:29;6.23;;;5.93;;
8397;SDS011;4236;54.504;9.588;2023-03-11T11:15:59;5.80;;;5.40;;
8397;SDS011;4236;54.504;9.588;2023-03-11T11:18:30;6.13;;;5.40;;
8397;SDS011;4236;54.504;9.588;2023-03-11T11:21:01;6.47;;;6.03;;
8397;SDS011;4236;54.504;9.588;2023-03-11T11:23:33;8.87;;;5.83;;
8397;SDS011;4236;54.504;9.588;2023-03-11T11:26:07;6.03;;;5.67;;
8397;SDS011;4236;54.504;9.588;2023-03-11T11:28:42;5.63;;;5.23;;
8397;SDS011;4236;54.504;9.588;2023-03-11T11:31:22;7.13;;;6.83;;
8397;SDS011;4236;54.504;9.588;2023-03-11T11:33:51;5.70;;;5.30;;
8397;SDS011;4236;54.504;9.588;2023-03-11T11:36:21;6.17;;;4.90;;
8397;SDS011;4236;54.504;9.588;2023-03-11T11:38:51;4.70;;;4.40;;
8397;SDS011;4236;54.504;9.588;2023-03-11T11:41:24;5.70;;;5.40;;
8397;SDS011;4236;54.504;9.588;2023-03-11T11:43:55;5.30;;;4.90;;
8397;SDS011;4236;54.504;9.588;2023-03-11T11:46:26;5.43;;;5.23;;
8397;SDS011;4236;54.504;9.588;2023-03-11T11:49:01;4.93;;;4.53;;
8397;SDS011;4236;54.504;9.588;2023-03-11T11:51:34;5.53;;;5.33;;
8397;SDS011;4236;54.504;9.588;2023-03-11T11:54:08;6.47;;;5.57;;
8397;SDS011;4236;54.504;9.588;2023-03-11T11:56:44;5.20;;;4.80;;
8397;SDS011;4236;54.504;9.588;2023-03-11T11:59:13;6.20;;;5.80;;
8397;SDS011;4236;54.504;9.588;2023-03-11T12:01:46;5.83;;;5.30;;
8397;SDS011;4236;54.504;9.588;2023-03-11T12:04:28;6.43;;;5.93;;
8397;SDS011;4236;54.504;9.588;2023-03-11T12:07:14;5.83;;;5.53;;
8397;SDS011;4236;54.504;9.588;2023-03-11T12:09:58;5.37;;;4.97;;
8397;SDS011;4236;54.504;9.588;2023-03-11T12:12:50;6.43;;;5.83;;
8397;SDS011;4236;54.504;9.588;2023-03-11T12:15:31;5.50;;;5.27;;
8397;SDS011;4236;54.504;9.588;2023-03-11T12:18:08;5.00;;;4.83;;
8397;SDS011;4236;54.504;9.588;2023-03-11T12:20:42;4.93;;;4.83;;
8397;SDS011;4236;54.504;9.588;2023-03-11T12:23:17;5.73;;;5.20;;
8397;SDS011;4236;54.504;9.588;2023-03-11T12:25:59;6.53;;;5.93;;
8397;SDS011;4236;54.504;9.588;2023-03-11T12:28:37;5.23;;;5.03;;
8397;SDS011;4236;54.504;9.588;2023-03-11T12:31:09;5.13;;;4.83;;
8397;SDS011;4236;54.504;9.588;2023-03-11T12:33:39;6.10;;;5.80;;
8397;SDS011;4236;54.504;9.588;2023-03-11T12:36:20;7.80;;;7.20;;
8397;SDS011;4236;54.504;9.588;2023-03-11T12:38:50;7.90;;;7.60;;
8397;SDS011;4236;54.504;9.588;2023-03-11T12:41:27;7.83;;;7.40;;
8397;SDS011;4236;54.504;9.588;2023-03-11T12:44:04;7.73;;;7.43;;
8397;SDS011;4236;54.504;9.588;2023-03-11T12:53:08;9.70;;;9.20;;
8397;SDS011;4236;54.504;9.588;2023-03-11T12:55:53;9.87;;;9.27;;
8397;SDS011;4236;54.504;9.588;2023-03-11T12:58:36;11.33;;;10.30;;
8397;SDS011;4236;54.504;9.588;2023-03-11T13:01:35;10.23;;;9.63;;
8397;SDS011;4236;54.504;9.588;2023-03-11T13:04:20;10.90;;;10.30;;
8397;SDS011;4236;54.504;9.588;2023-03-11T13:07:03;10.60;;;10.00;;
8397;SDS011;4236;54.504;9.588;2023-03-11T13:10:00;12.20;;;11.60;;
8397;SDS011;4236;54.504;9.588;2023-03-11T13:12:39;10.50;;;9.87;;
8397;SDS011;4236;54.504;9.588;2023-03-11T13:15:26;11.27;;;10.60;;
8397;SDS011;4236;54.504;9.588;2023-03-11T13:18:15;11.10;;;10.57;;
8397;SDS011;4236;54.504;9.588;2023-03-11T13:20:49;11.33;;;10.70;;
8397;SDS011;4236;54.504;9.588;2023-03-11T13:23:24;11.03;;;10.20;;
8397;SDS011;4236;54.504;9.588;2023-03-11T13:35:21;10.10;;;9.77;;
8397;SDS011;4236;54.504;9.588;2023-03-11T13:38:09;11.03;;;10.43;;
8397;SDS011;4236;54.504;9.588;2023-03-11T13:40:52;13.57;;;12.60;;
8397;SDS011;4236;54.504;9.588;2023-03-11T13:43:20;10.60;;;10.30;;
8397;SDS011;4236;54.504;9.588;2023-03-11T13:45:51;12.07;;;11.37;;
8397;SDS011;4236;54.504;9.588;2023-03-11T13:48:23;9.07;;;8.67;;
8397;SDS011;4236;54.504;9.588;2023-03-11T13:50:58;11.73;;;10.73;;
8397;SDS011;4236;54.504;9.588;2023-03-11T13:53:29;9.73;;;9.00;;
8397;SDS011;4236;54.504;9.588;2023-03-11T13:56:00;9.27;;;8.67;;
8397;SDS011;4236;54.504;9.588;2023-03-11T13:58:28;9.43;;;8.90;;
8397;SDS011;4236;54.504;9.588;2023-03-11T14:00:57;8.53;;;8.07;;
8397;SDS011;4236;54.504;9.588;2023-03-11T14:03:27;10.63;;;9.83;;
8397;SDS011;4236;54.504;9.588;2023-03-11T14:06:01;11.00;;;10.33;;
8397;SDS011;4236;54.504;9.588;2023-03-11T14:08:31;9.23;;;8.40;;
8397;SDS011;4236;54.504;9.588;2023-03-11T14:11:01;9.03;;;8.33;;
8397;SDS011;4236;54.504;9.588;2023-03-11T14:13:30;8.07;;;7.50;;
8397;SDS011;4236;54.504;9.588;2023-03-11T14:16:01;9.37;;;8.90;;
8397;SDS011;4236;54.504;9.588;2023-03-11T14:18:32;8.20;;;7.77;;
8397;SDS011;4236;54.504;9.588;2023-03-11T14:21:05;7.87;;;7.40;;
8397;SDS011;4236;54.504;9.588;2023-03-11T14:23:39;8.20;;;7.70;;
8397;SDS011;4236;54.504;9.588;2023-03-11T14:26:11;8.33;;;7.87;;
8397;SDS011;4236;54.504;9.588;2023-03-11T14:28:41;8.53;;;7.97;;
8397;SDS011;4236;54.504;9.588;2023-03-11T14:31:21;8.80;;;8.10;;
8397;SDS011;4236;54.504;9.588;2023-03-11T14:33:56;9.83;;;8.30;;
8397;SDS011;4236;54.504;9.588;2023-03-11T14:36:38;9.83;;;9.13;;
8397;SDS011;4236;54.504;9.588;2023-03-11T14:39:20;10.40;;;9.73;;
8397;SDS011;4236;54.504;9.588;2023-03-11T14:41:49;9.77;;;9.03;;
8397;SDS011;4236;54.504;9.588;2023-03-11T14:44:19;12.70;;;10.50;;
8397;SDS011;4236;54.504;9.588;2023-03-11T14:46:49;9.50;;;8.70;;
8397;SDS011;4236;54.504;9.588;2023-03-11T14:49:19;10.03;;;9.47;;
8397;SDS011;4236;54.504;9.588;2023-03-11T14:51:52;9.93;;;9.23;;
8397;SDS011;4236;54.504;9.588;2023-03-11T14:54:25;9.57;;;8.70;;
8397;SDS011;4236;54.504;9.588;2023-03-11T14:56:57;9.67;;;9.07;;
8397;SDS011;4236;54.504;9.588;2023-03-11T14:59:30;9.13;;;8.40;;
8397;SDS011;4236;54.504;9.588;2023-03-11T15:02:05;9.50;;;8.90;;
8397;SDS011;4236;54.504;9.588;2023-03-11T15:04:53;13.23;;;9.30;;
8397;SDS011;4236;54.504;9.588;2023-03-11T15:07:27;10.67;;;9.00;;
8397;SDS011;4236;54.504;9.588;2023-03-11T15:09:54;11.63;;;10.97;;
8397;SDS011;4236;54.504;9.588;2023-03-11T15:12:29;12.43;;;11.53;;
8397;SDS011;4236;54.504;9.588;2023-03-11T15:14:58;12.33;;;11.53;;
8397;SDS011;4236;54.504;9.588;2023-03-11T15:17:27;11.87;;;11.27;;
8397;SDS011;4236;54.504;9.588;2023-03-11T15:20:21;11.80;;;11.40;;
8397;SDS011;4236;54.504;9.588;2023-03-11T15:22:54;11.83;;;11.53;;
8397;SDS011;4236;54.504;9.588;2023-03-11T15:25:27;13.30;;;12.80;;
8397;SDS011;4236;54.504;9.588;2023-03-11T15:27:56;13.57;;;13.03;;
8397;SDS011;4236;54.504;9.588;2023-03-11T15:30:26;14.00;;;13.60;;
8397;SDS011;4236;54.504;9.588;2023-03-11T15:32:55;14.10;;;13.40;;